Etusivu
METAR-TAF:

METAR-TAF

Lentoasemat :

Torino, Italia

Leveyspiiri: 45-13N, Pituuspiiri: 007-39E, korkeus merenpinnasta: 301 m

Tämänhetkinen sää

Tämä raportti tehtiin 32 minuuttia sitten, kello 19.50 UTC
Tuuli 3 kn lännestä/lounaasta, vaihdellen etelän/lounaan ja lännen välillä
Lämpötila 17°C
Kosteus 82%
Ilmanpaine 1022 hPa
Näkyvyys: 8000 m
Hajonneita pilviä 10000 ft:n korkeudessa

METAR: LIMF 161950Z 25003KT 210V280 8000 BKN100 17/14 Q1022

Aika: 22:22 (20:22 UTC)

Sääennuste

Tämä raportti tehtiin 3 tuntia ja 22 minuuttia sitten, kello 17.00 UTC
Ennuste voimassa 16. päivästä klo 18 UTC - 17. päivään klo 18 UTC
Tuuli 5 kn eri suunnista
Näkyvyys: 7000 m
Hajonneita pilviä 9000 ft:n korkeudessa

TAF: LIMF 161700Z 1618/1718 VRB05KT 7000 BKN090

Säähavainnot ja -ennusteet yli 4000 lentoasemalta (METAR- ja TAF-raportit).

Käytössä olevat sääasemat on merkitty karttaan keltaisilla ja punaisilla pisteillä.

Aseta hiiri pisteen päälle nähdäksesi sääaseman nimen.

Klikkaa sitten nähdäksesi säähavainnot ja -ennusteet.

Kartan vaihtaminen: klikkaa mustalla rastilla varustettuja vihreitä pisteitä, niin voit zoomata sisään; viivalla varustettua vihreää pistettä, niin voit zoomata ulos tai vihreitä nuolia, niin pääset viereisille kartoille.


METAR-TAF: